createdAt,value
2022-12-11T00:00:47.374Z,-1.79
2022-12-11T00:03:16.828Z,-1.73
2022-12-11T00:05:44.798Z,-1.76
2022-12-11T00:08:13.121Z,-1.75
2022-12-11T00:10:39.930Z,-1.71
2022-12-11T00:13:06.626Z,-1.73
2022-12-11T00:15:33.443Z,-1.80
2022-12-11T00:18:00.326Z,-1.81
2022-12-11T00:20:27.251Z,-1.80
2022-12-11T00:22:54.067Z,-1.84
2022-12-11T00:25:20.835Z,-1.88
2022-12-11T00:27:47.703Z,-1.79
2022-12-11T00:30:15.249Z,-1.73
2022-12-11T00:32:43.278Z,-1.68
2022-12-11T00:35:10.799Z,-1.77
2022-12-11T00:37:37.812Z,-1.70
2022-12-11T00:40:04.924Z,-1.68
2022-12-11T00:42:31.730Z,-1.79
2022-12-11T00:44:58.366Z,-1.74
2022-12-11T00:47:25.175Z,-1.72
2022-12-11T00:49:52.297Z,-1.71
2022-12-11T00:52:18.960Z,-1.69
2022-12-11T00:54:45.637Z,-1.70
2022-12-11T00:57:12.340Z,-1.69
2022-12-11T00:59:39.283Z,-1.75
2022-12-11T01:02:05.993Z,-1.69
2022-12-11T01:04:35.777Z,-1.59
2022-12-11T01:07:02.637Z,-1.67
2022-12-11T01:09:47.978Z,-1.69
2022-12-11T01:12:14.638Z,-1.76
2022-12-11T01:14:41.356Z,-1.67
2022-12-11T01:17:08.047Z,-1.62
2022-12-11T01:19:34.793Z,-1.63
2022-12-11T01:22:01.567Z,-1.64
2022-12-11T01:24:28.595Z,-1.64
2022-12-11T01:26:55.261Z,-1.90
2022-12-11T01:29:22.019Z,-1.90
2022-12-11T01:31:48.778Z,-1.75
2022-12-11T01:34:15.531Z,-1.68
2022-12-11T01:36:42.330Z,-1.62
2022-12-11T01:39:09.120Z,-1.56
2022-12-11T01:41:35.845Z,-1.49
2022-12-11T01:44:31.245Z,-1.59
2022-12-11T01:46:58.619Z,-1.50
2022-12-11T01:49:27.693Z,-1.52
2022-12-11T01:52:07.765Z,-1.47
2022-12-11T01:54:35.445Z,-1.48
2022-12-11T01:57:06.117Z,-1.48
2022-12-11T01:59:37.683Z,-1.47
2022-12-11T02:02:12.406Z,-1.37
2022-12-11T02:04:40.824Z,-1.33
2022-12-11T02:07:07.608Z,-1.30
2022-12-11T02:09:36.447Z,-1.37
2022-12-11T02:12:09.155Z,-1.48
2022-12-11T02:15:02.208Z,-1.45
2022-12-11T02:17:50.334Z,-1.36
2022-12-11T02:20:27.140Z,-1.31
2022-12-11T02:23:08.990Z,-1.33
2022-12-11T02:26:05.487Z,-1.28
2022-12-11T02:28:36.364Z,-1.25
2022-12-11T02:31:29.383Z,-1.23
2022-12-11T02:34:10.466Z,-1.23
2022-12-11T02:36:43.310Z,-1.17
2022-12-11T02:39:13.157Z,-1.18
2022-12-11T02:41:44.349Z,-1.18
2022-12-11T02:44:13.943Z,-1.16
2022-12-11T02:46:42.336Z,-1.14
2022-12-11T02:49:10.474Z,-1.22
2022-12-11T02:51:41.027Z,-1.18
2022-12-11T02:54:13.772Z,-1.23
2022-12-11T02:56:51.607Z,-1.23
2022-12-11T02:59:24.282Z,-1.22
2022-12-11T03:01:51.229Z,-1.17
2022-12-11T03:04:18.036Z,-1.17
2022-12-11T03:06:50.541Z,-1.24
2022-12-11T03:09:17.754Z,-1.16
2022-12-11T03:11:44.420Z,-1.18
2022-12-11T03:14:11.525Z,-1.12
2022-12-11T03:17:14.436Z,-1.10
2022-12-11T03:19:55.623Z,-1.24
2022-12-11T03:22:26.508Z,-1.35
2022-12-11T03:25:02.269Z,-1.35
2022-12-11T03:27:38.435Z,-1.33
2022-12-11T03:30:12.826Z,-1.38
2022-12-11T03:32:54.127Z,-1.38
2022-12-11T03:35:33.279Z,-1.42
2022-12-11T03:38:15.094Z,-1.40
2022-12-11T03:40:44.591Z,-1.55
2022-12-11T03:43:11.752Z,-1.56
2022-12-11T03:45:40.288Z,-1.52
2022-12-11T03:48:10.457Z,-1.41
2022-12-11T03:50:37.974Z,-1.43
2022-12-11T03:53:05.308Z,-1.41
2022-12-11T03:55:33.429Z,-1.47
2022-12-11T03:58:00.318Z,-1.38
2022-12-11T04:00:27.380Z,-1.44
2022-12-11T04:03:13.857Z,-1.48
2022-12-11T04:05:42.556Z,-1.41
2022-12-11T04:08:09.612Z,-1.50
2022-12-11T04:10:36.444Z,-1.46
2022-12-11T04:13:03.217Z,-1.52
2022-12-11T04:15:29.978Z,-1.48
2022-12-11T04:18:15.355Z,-1.36
2022-12-11T04:21:00.491Z,-1.44
2022-12-11T04:23:45.652Z,-1.38
2022-12-11T04:26:16.450Z,-1.55
2022-12-11T04:28:44.296Z,-1.51
2022-12-11T04:31:13.388Z,-1.57
2022-12-11T04:33:40.972Z,-1.51
2022-12-11T04:36:09.058Z,-1.48
2022-12-11T04:38:36.485Z,-1.58
2022-12-11T04:41:09.239Z,-1.54
2022-12-11T04:43:36.588Z,-1.55
2022-12-11T04:46:06.474Z,-1.62
2022-12-11T04:48:33.933Z,-1.72
2022-12-11T04:51:00.625Z,-1.72
2022-12-11T04:53:28.390Z,-1.54
2022-12-11T04:55:55.506Z,-1.55
2022-12-11T04:58:22.986Z,-1.48
2022-12-11T05:00:50.022Z,-1.51
2022-12-11T05:03:16.843Z,-1.53
2022-12-11T05:05:51.059Z,-1.51
2022-12-11T05:08:18.822Z,-1.43
2022-12-11T05:10:49.933Z,-1.34
2022-12-11T05:13:16.784Z,-1.39
2022-12-11T05:15:43.643Z,-1.28
2022-12-11T05:18:10.403Z,-1.33
2022-12-11T05:20:37.101Z,-1.41
2022-12-11T05:23:03.834Z,-1.33
2022-12-11T05:25:30.578Z,-1.41
2022-12-11T05:27:59.624Z,-1.43
2022-12-11T05:30:26.721Z,-1.41
2022-12-11T05:32:53.468Z,-1.47
2022-12-11T05:35:20.305Z,-1.56
2022-12-11T05:37:46.989Z,-1.49
2022-12-11T05:40:13.901Z,-1.47
2022-12-11T05:42:40.561Z,-1.42
2022-12-11T05:45:07.540Z,-1.42
2022-12-11T05:47:34.237Z,-1.31
2022-12-11T05:50:01.514Z,-1.34
2022-12-11T05:52:28.179Z,-1.43
2022-12-11T05:54:54.858Z,-1.42
2022-12-11T05:57:21.613Z,-1.41
2022-12-11T05:59:48.371Z,-1.47
2022-12-11T06:02:15.419Z,-1.57
2022-12-11T06:04:42.247Z,-1.47
2022-12-11T06:07:09.070Z,-1.53
2022-12-11T06:09:35.798Z,-1.55
2022-12-11T06:12:02.569Z,-1.69
2022-12-11T06:14:29.294Z,-1.53
2022-12-11T06:16:56.013Z,-1.46
2022-12-11T06:19:22.655Z,-1.53
2022-12-11T06:21:49.507Z,-1.49
2022-12-11T06:24:16.248Z,-1.40
2022-12-11T06:26:42.957Z,-1.42
2022-12-11T06:29:12.927Z,-1.40
2022-12-11T06:31:40.492Z,-1.40
2022-12-11T06:34:07.423Z,-1.43
2022-12-11T06:36:34.821Z,-1.44
2022-12-11T06:39:01.562Z,-1.46
2022-12-11T06:41:28.212Z,-1.42
2022-12-11T06:43:54.907Z,-1.45
2022-12-11T06:46:21.951Z,-1.41
2022-12-11T06:48:50.595Z,-1.39
2022-12-11T06:51:20.762Z,-1.43
2022-12-11T06:53:52.604Z,-1.37
2022-12-11T06:56:20.483Z,-1.42
2022-12-11T06:58:47.391Z,-1.38
2022-12-11T07:01:15.415Z,-1.43
2022-12-11T07:03:42.241Z,-1.34
2022-12-11T07:06:09.284Z,-1.31
2022-12-11T07:08:36.391Z,-1.35
2022-12-11T07:11:07.919Z,-1.42
2022-12-11T07:13:35.685Z,-1.45
2022-12-11T07:16:04.869Z,-1.44
2022-12-11T07:18:34.941Z,-1.38
2022-12-11T07:21:01.666Z,-1.43
2022-12-11T07:23:28.991Z,-1.41
2022-12-11T07:25:56.327Z,-1.46
2022-12-11T07:28:23.144Z,-1.46
2022-12-11T07:30:50.256Z,-1.53
2022-12-11T07:33:16.992Z,-1.49
2022-12-11T07:35:44.857Z,-1.39
2022-12-11T07:38:11.949Z,-1.49
2022-12-11T07:40:38.674Z,-1.48
2022-12-11T07:43:05.432Z,-1.45
2022-12-11T07:45:34.935Z,-1.36
2022-12-11T07:48:01.978Z,-1.35
2022-12-11T07:50:28.950Z,-1.32
2022-12-11T07:52:55.650Z,-1.35
2022-12-11T07:55:22.459Z,-1.29
2022-12-11T07:57:49.200Z,-1.30
2022-12-11T08:00:17.016Z,-1.21
2022-12-11T08:02:43.882Z,-1.21
2022-12-11T08:05:11.082Z,-1.26
2022-12-11T08:07:38.018Z,-1.39
2022-12-11T08:10:05.283Z,-1.27
2022-12-11T08:12:31.941Z,-1.22
2022-12-11T08:14:58.608Z,-1.34
2022-12-11T08:17:29.578Z,-1.32
2022-12-11T08:19:57.608Z,-1.23
2022-12-11T08:22:24.303Z,-1.32
2022-12-11T08:24:51.232Z,-1.19
2022-12-11T08:27:18.028Z,-1.14
2022-12-11T08:29:47.613Z,-1.17
2022-12-11T08:32:16.830Z,-1.18
2022-12-11T08:34:44.647Z,-1.14
2022-12-11T08:37:12.385Z,-1.14
2022-12-11T08:39:42.280Z,-1.08
2022-12-11T08:42:09.515Z,-1.14
2022-12-11T08:44:36.418Z,-1.14
2022-12-11T08:47:03.348Z,-1.14
2022-12-11T08:49:34.382Z,-1.05
2022-12-11T08:52:03.113Z,-1.10
2022-12-11T08:54:30.177Z,-1.05
2022-12-11T08:56:58.314Z,-1.06
2022-12-11T08:59:25.917Z,-1.03
2022-12-11T09:01:52.804Z,-1.06
2022-12-11T09:04:19.647Z,-1.00
2022-12-11T09:06:46.416Z,-0.87
2022-12-11T09:09:13.366Z,-0.82
2022-12-11T09:11:40.274Z,-0.74
2022-12-11T09:14:08.262Z,-0.81
2022-12-11T09:16:38.046Z,-0.87
2022-12-11T09:19:04.826Z,-0.85
2022-12-11T09:21:31.892Z,-0.84
2022-12-11T09:24:00.671Z,-0.81
2022-12-11T09:26:28.974Z,-0.90
2022-12-11T09:28:56.099Z,-0.77
2022-12-11T09:31:29.385Z,-0.70
2022-12-11T09:33:59.779Z,-0.70
2022-12-11T09:36:27.249Z,-0.68
2022-12-11T09:38:54.641Z,-0.76
2022-12-11T09:41:21.611Z,-0.64
2022-12-11T09:43:51.708Z,-0.56
2022-12-11T09:46:20.786Z,-0.58
2022-12-11T09:48:50.774Z,-0.59
2022-12-11T09:51:28.280Z,-0.60
2022-12-11T09:53:57.071Z,-0.60
2022-12-11T09:56:33.412Z,-0.47
2022-12-11T09:59:08.996Z,-0.49
2022-12-11T10:02:14.516Z,-0.46
2022-12-11T10:04:50.154Z,-0.53
2022-12-11T10:07:39.663Z,-0.37
2022-12-11T10:10:14.209Z,-0.34
2022-12-11T10:12:58.065Z,-0.29
2022-12-11T10:15:37.277Z,-0.26
2022-12-11T10:18:10.038Z,-0.24
2022-12-11T10:20:40.334Z,-0.25
2022-12-11T10:23:19.822Z,-0.19
2022-12-11T10:26:09.340Z,-0.20
2022-12-11T10:28:36.247Z,-0.15
2022-12-11T10:31:42.391Z,-0.69
2022-12-11T10:34:18.908Z,-0.63
2022-12-11T10:36:46.110Z,-0.38
2022-12-11T10:39:16.571Z,-0.32
2022-12-11T10:41:48.402Z,-0.21
2022-12-11T10:44:24.176Z,-0.25
2022-12-11T10:47:10.936Z,-0.34
2022-12-11T10:49:39.793Z,-0.32
2022-12-11T10:52:13.668Z,-0.29
2022-12-11T10:54:43.779Z,-0.07
2022-12-11T10:57:14.191Z,-0.15
2022-12-11T10:59:43.805Z,-0.10
2022-12-11T11:02:30.881Z,-0.20
2022-12-11T11:04:59.635Z,-0.35
2022-12-11T11:07:31.256Z,-0.53
2022-12-11T11:10:15.663Z,-0.31
2022-12-11T11:12:45.779Z,-0.37
2022-12-11T11:15:26.696Z,-0.26
2022-12-11T11:17:58.197Z,-0.20
2022-12-11T11:20:28.309Z,-0.43
2022-12-11T11:23:09.118Z,-0.30
2022-12-11T11:25:36.116Z,-0.06
2022-12-11T11:28:06.426Z,-0.07
2022-12-11T11:30:39.984Z,-0.33
2022-12-11T11:33:13.777Z,-0.54
2022-12-11T11:35:51.462Z,-0.42
2022-12-11T11:38:21.393Z,-0.41
2022-12-11T11:41:04.228Z,-0.41
2022-12-11T11:43:38.348Z,-0.15
2022-12-11T11:46:14.125Z,-0.60
2022-12-11T11:48:51.469Z,-0.50
2022-12-11T11:51:28.126Z,-0.33
2022-12-11T11:54:00.412Z,-0.17
2022-12-11T11:56:32.030Z,-0.22
2022-12-11T11:59:20.966Z,-0.25
2022-12-11T12:01:47.936Z,-0.13
2022-12-11T12:04:15.019Z,-0.30
2022-12-11T12:07:12.635Z,-0.40
2022-12-11T12:09:45.204Z,-0.42
2022-12-11T12:12:24.688Z,-0.43
2022-12-11T12:14:57.288Z,-0.35
2022-12-11T12:17:41.282Z,-0.33
2022-12-11T12:20:16.329Z,-0.40
2022-12-11T12:22:56.646Z,-0.39
2022-12-11T12:25:37.295Z,-0.05
2022-12-11T12:28:15.824Z,0.03
2022-12-11T12:31:06.697Z,0.05
2022-12-11T12:33:45.277Z,0.08
2022-12-11T12:36:37.688Z,0.03
2022-12-11T12:39:32.075Z,0.12
2022-12-11T12:42:36.227Z,0.13
2022-12-11T12:45:17.148Z,0.23
2022-12-11T12:47:53.052Z,-0.14
2022-12-11T12:50:23.954Z,-0.23
2022-12-11T12:52:53.272Z,-0.12
2022-12-11T12:55:29.620Z,-0.05
2022-12-11T12:58:00.598Z,0.19
2022-12-11T13:00:35.012Z,0.21
2022-12-11T13:03:27.685Z,0.03
2022-12-11T13:06:09.469Z,-0.14
2022-12-11T13:08:46.972Z,-0.07
2022-12-11T13:11:16.776Z,0.19
2022-12-11T13:14:02.242Z,0.15
2022-12-11T13:16:38.249Z,-0.19
2022-12-11T13:19:26.687Z,-0.11
2022-12-11T13:22:02.529Z,-0.06
2022-12-11T13:24:32.251Z,-0.05
2022-12-11T13:27:22.643Z,-0.01
2022-12-11T13:29:49.504Z,-0.12
2022-12-11T13:32:16.160Z,-0.12
2022-12-11T13:34:50.918Z,-0.12
2022-12-11T13:37:41.408Z,-0.22
2022-12-11T13:40:32.990Z,-0.25
2022-12-11T13:43:03.348Z,-0.24
2022-12-11T13:45:45.043Z,-0.16
2022-12-11T13:48:29.825Z,-0.22
2022-12-11T13:50:57.841Z,-0.32
2022-12-11T13:53:24.928Z,-0.19
2022-12-11T13:56:05.052Z,-0.24
2022-12-11T13:58:35.642Z,-0.31
2022-12-11T14:01:13.965Z,-0.24
2022-12-11T14:03:58.441Z,-0.34
2022-12-11T14:06:27.745Z,-0.33
2022-12-11T14:08:57.660Z,-0.37
2022-12-11T14:11:34.160Z,-0.24
2022-12-11T14:14:03.576Z,-0.20
2022-12-11T14:16:30.948Z,-0.28
2022-12-11T14:19:05.412Z,-0.34
2022-12-11T14:21:32.503Z,-0.26
2022-12-11T14:24:03.021Z,-0.26
2022-12-11T14:26:32.088Z,-0.36
2022-12-11T14:28:58.889Z,-0.16
2022-12-11T14:31:28.820Z,-0.26
2022-12-11T14:34:03.259Z,-0.42
2022-12-11T14:36:31.501Z,-0.25
2022-12-11T14:39:10.714Z,-0.29
2022-12-11T14:41:48.265Z,-0.30
2022-12-11T14:44:24.920Z,-0.28
2022-12-11T14:47:01.371Z,-0.29
2022-12-11T14:49:39.129Z,-0.33
2022-12-11T14:52:12.265Z,-0.32
2022-12-11T14:54:45.173Z,-0.34
2022-12-11T14:57:29.008Z,-0.46
2022-12-11T14:59:56.685Z,-0.48
2022-12-11T15:02:35.721Z,-0.48
2022-12-11T15:05:11.870Z,-0.38
2022-12-11T15:07:39.116Z,-0.43
2022-12-11T15:10:06.092Z,-0.44
2022-12-11T15:12:36.855Z,-0.47
2022-12-11T15:15:07.404Z,-0.43
2022-12-11T15:17:37.336Z,-0.40
2022-12-11T15:20:08.913Z,-0.44
2022-12-11T15:22:36.390Z,-0.42
2022-12-11T15:25:03.955Z,-0.30
2022-12-11T15:27:37.548Z,-0.29
2022-12-11T15:30:27.817Z,-0.40
2022-12-11T15:33:09.910Z,-0.49
2022-12-11T15:35:39.148Z,-0.54
2022-12-11T15:38:06.061Z,-0.58
2022-12-11T15:40:33.042Z,-0.49
2022-12-11T15:43:01.987Z,-0.58
2022-12-11T15:45:29.249Z,-0.60
2022-12-11T15:47:57.400Z,-0.64
2022-12-11T15:50:25.296Z,-0.64
2022-12-11T15:52:54.146Z,-0.65
2022-12-11T15:55:22.608Z,-0.64
2022-12-11T15:57:56.005Z,-0.64
2022-12-11T16:00:24.107Z,-0.65
2022-12-11T16:02:52.191Z,-0.64
2022-12-11T16:05:19.040Z,-0.66
2022-12-11T16:07:45.833Z,-0.66
2022-12-11T16:10:16.148Z,-0.69
2022-12-11T16:12:43.777Z,-0.74
2022-12-11T16:15:15.309Z,-0.71
2022-12-11T16:17:44.418Z,-0.79
2022-12-11T16:20:11.977Z,-0.79
2022-12-11T16:22:38.643Z,-0.76
2022-12-11T16:25:06.096Z,-0.77
2022-12-11T16:27:32.798Z,-0.81
2022-12-11T16:29:59.587Z,-0.81
2022-12-11T16:32:26.297Z,-0.85
2022-12-11T16:34:53.173Z,-0.83
2022-12-11T16:37:21.319Z,-0.77
2022-12-11T16:39:48.607Z,-0.73
2022-12-11T16:42:15.262Z,-0.82
2022-12-11T16:44:44.385Z,-0.84
2022-12-11T16:47:11.587Z,-0.85
2022-12-11T16:49:38.401Z,-0.86
2022-12-11T16:52:05.446Z,-0.85
2022-12-11T16:54:32.230Z,-0.87
2022-12-11T16:56:58.988Z,-0.79
2022-12-11T16:59:25.649Z,-0.72
2022-12-11T17:01:52.539Z,-0.84
2022-12-11T17:04:19.289Z,-0.87
2022-12-11T17:06:46.537Z,-0.86
2022-12-11T17:09:13.299Z,-0.87
2022-12-11T17:11:40.034Z,-0.89
2022-12-11T17:14:06.781Z,-0.93
2022-12-11T17:16:34.166Z,-0.97
2022-12-11T17:19:01.119Z,-0.97
2022-12-11T17:21:28.010Z,-0.89
2022-12-11T17:23:54.851Z,-0.91
2022-12-11T17:26:21.882Z,-0.96
2022-12-11T17:28:48.634Z,-0.93
2022-12-11T17:31:18.060Z,-0.92
2022-12-11T17:33:46.638Z,-0.96
2022-12-11T17:36:16.635Z,-0.97
2022-12-11T17:38:43.508Z,-0.99
2022-12-11T17:41:18.393Z,-0.96
2022-12-11T17:43:48.413Z,-0.91
2022-12-11T17:46:15.207Z,-0.93
2022-12-11T17:48:42.022Z,-0.98
2022-12-11T17:51:12.112Z,-0.99
2022-12-11T17:53:39.207Z,-0.93
2022-12-11T17:56:08.346Z,-0.84
2022-12-11T17:58:35.385Z,-0.88
2022-12-11T18:01:07.409Z,-0.92
2022-12-11T18:03:34.299Z,-0.92
2022-12-11T18:06:05.750Z,-0.94
2022-12-11T18:08:32.890Z,-0.90
2022-12-11T18:11:14.813Z,-0.92
2022-12-11T18:13:43.707Z,-0.84
2022-12-11T18:16:17.558Z,-0.78
2022-12-11T18:18:46.422Z,-0.85
2022-12-11T18:21:16.213Z,-0.85
2022-12-11T18:23:43.353Z,-0.75
2022-12-11T18:26:11.265Z,-0.77
2022-12-11T18:28:37.998Z,-0.82
2022-12-11T18:31:04.807Z,-0.83
2022-12-11T18:33:32.353Z,-0.77
2022-12-11T18:35:59.115Z,-0.73
2022-12-11T18:38:25.889Z,-0.79
2022-12-11T18:40:52.637Z,-0.79
2022-12-11T18:43:19.380Z,-0.84
2022-12-11T18:45:46.224Z,-0.77
2022-12-11T18:48:14.145Z,-0.70
2022-12-11T18:50:45.858Z,-0.80
2022-12-11T18:53:13.292Z,-0.86
2022-12-11T18:55:48.184Z,-0.82
2022-12-11T18:58:20.973Z,-0.79
2022-12-11T19:00:47.891Z,-0.81
2022-12-11T19:03:14.859Z,-0.89
2022-12-11T19:05:43.903Z,-0.94
2022-12-11T19:08:13.911Z,-0.91
2022-12-11T19:10:44.997Z,-0.83
2022-12-11T19:13:12.963Z,-0.88
2022-12-11T19:15:41.881Z,-0.88
2022-12-11T19:18:08.861Z,-0.82
2022-12-11T19:20:49.266Z,-0.74
2022-12-11T19:23:17.941Z,-0.76
2022-12-11T19:25:46.861Z,-0.80
2022-12-11T19:28:15.442Z,-0.75
2022-12-11T19:30:51.419Z,-0.69
2022-12-11T19:33:18.219Z,-0.70
2022-12-11T19:35:45.310Z,-0.64
2022-12-11T19:38:13.084Z,-0.60
2022-12-11T19:40:44.162Z,-0.77
2022-12-11T19:43:11.360Z,-0.81
2022-12-11T19:45:38.660Z,-0.86
2022-12-11T19:48:05.893Z,-0.89
2022-12-11T19:50:35.990Z,-0.91
2022-12-11T19:53:03.657Z,-0.93
2022-12-11T19:55:30.400Z,-0.90
2022-12-11T19:57:57.328Z,-0.97
2022-12-11T20:00:24.835Z,-1.02
2022-12-11T20:02:51.853Z,-1.06
2022-12-11T20:05:18.644Z,-1.06
2022-12-11T20:07:45.489Z,-1.07
2022-12-11T20:10:12.870Z,-1.08
2022-12-11T20:12:39.624Z,-1.12
2022-12-11T20:15:06.812Z,-1.14
2022-12-11T20:17:33.726Z,-1.23
2022-12-11T20:20:00.711Z,-1.22
2022-12-11T20:22:27.463Z,-1.16
2022-12-11T20:24:54.396Z,-1.16
2022-12-11T20:27:21.034Z,-1.07
2022-12-11T20:29:47.731Z,-0.99
2022-12-11T20:32:14.519Z,-0.92
2022-12-11T20:34:41.408Z,-0.89
2022-12-11T20:37:08.162Z,-0.91
2022-12-11T20:39:35.768Z,-0.85
2022-12-11T20:42:05.003Z,-0.88
2022-12-11T20:44:32.158Z,-0.87
2022-12-11T20:47:01.780Z,-0.84
2022-12-11T20:49:28.521Z,-0.96
2022-12-11T20:51:55.628Z,-0.94
2022-12-11T20:54:22.337Z,-0.98
2022-12-11T20:56:49.833Z,-0.99
2022-12-11T20:59:17.467Z,-1.06
2022-12-11T21:01:44.685Z,-1.08
2022-12-11T21:04:11.664Z,-1.12
2022-12-11T21:06:40.670Z,-1.14
2022-12-11T21:09:19.372Z,-1.21
2022-12-11T21:11:46.199Z,-1.16
2022-12-11T21:14:14.244Z,-1.15
2022-12-11T21:16:41.538Z,-1.26
2022-12-11T21:19:12.457Z,-1.24
2022-12-11T21:21:43.806Z,-1.22
2022-12-11T21:24:26.599Z,-1.25
2022-12-11T21:26:55.678Z,-1.28
2022-12-11T21:29:24.375Z,-1.27
2022-12-11T21:31:52.022Z,-1.25
2022-12-11T21:34:25.002Z,-1.30
2022-12-11T21:36:57.190Z,-1.33
2022-12-11T21:39:25.535Z,-1.33
2022-12-11T21:41:52.931Z,-1.29
2022-12-11T21:47:06.434Z,-1.25
2022-12-11T21:49:33.189Z,-1.27
2022-12-11T21:51:59.900Z,-1.29
2022-12-11T21:54:26.742Z,-1.29
2022-12-11T21:56:54.725Z,-1.26
2022-12-11T21:59:21.455Z,-1.25
2022-12-11T22:01:48.222Z,-1.25
2022-12-11T22:04:16.147Z,-1.25
2022-12-11T22:06:43.769Z,-1.23
2022-12-11T22:09:12.663Z,-1.25
2022-12-11T22:11:40.709Z,-1.27
2022-12-11T22:14:07.885Z,-1.26
2022-12-11T22:16:35.431Z,-1.27
2022-12-11T22:19:02.273Z,-1.28
2022-12-11T22:21:29.080Z,-1.29
2022-12-11T22:23:55.989Z,-1.27
2022-12-11T22:26:25.827Z,-1.23
2022-12-11T22:28:53.603Z,-1.27
2022-12-11T22:31:22.864Z,-1.24
2022-12-11T22:33:50.725Z,-1.22
2022-12-11T22:36:20.364Z,-1.27
2022-12-11T22:38:47.454Z,-1.27
2022-12-11T22:41:22.342Z,-1.25
2022-12-11T22:43:49.672Z,-1.23
2022-12-11T22:46:18.200Z,-1.20
2022-12-11T22:48:45.105Z,-1.21
2022-12-11T22:51:12.247Z,-1.21
2022-12-11T22:53:39.077Z,-1.21
2022-12-11T22:56:11.098Z,-1.22
2022-12-11T22:58:38.269Z,-1.22
2022-12-11T23:01:20.963Z,-1.21
2022-12-11T23:03:48.356Z,-1.25
2022-12-11T23:06:17.519Z,-1.13
2022-12-11T23:08:45.984Z,-1.07
2022-12-11T23:11:21.684Z,-1.10
2022-12-11T23:13:48.447Z,-1.01
2022-12-11T23:16:15.475Z,-1.04
2022-12-11T23:18:42.232Z,-1.07
2022-12-11T23:21:09.851Z,-0.96
2022-12-11T23:23:36.632Z,-0.95
2022-12-11T23:26:05.108Z,-1.10
2022-12-11T23:28:32.190Z,-1.08
2022-12-11T23:30:59.201Z,-1.12
2022-12-11T23:33:26.133Z,-1.06
2022-12-11T23:35:52.854Z,-1.03
2022-12-11T23:38:20.141Z,-1.08
2022-12-11T23:40:46.812Z,-1.12
2022-12-11T23:43:13.514Z,-1.12
2022-12-11T23:45:44.538Z,-1.04
2022-12-11T23:48:12.770Z,-1.04
2022-12-11T23:50:40.709Z,-1.01
2022-12-11T23:53:07.644Z,-1.08
2022-12-11T23:55:34.430Z,-1.10
2022-12-11T23:58:01.234Z,-1.08
